sensor_id;sensor_type;location;lat;lon;timestamp;pressure;altitude;pressure_sealevel;temperature;humidity
18755;BME280;35061;47.664;9.166;2023-05-02T00:02:25;101765.26;;;9.84;100.00
18755;BME280;35061;47.664;9.166;2023-05-02T00:04:53;101764.77;;;9.85;100.00
18755;BME280;35061;47.664;9.166;2023-05-02T00:07:21;101764.31;;;9.87;100.00
18755;BME280;35061;47.664;9.166;2023-05-02T00:09:49;101765.09;;;9.87;100.00
18755;BME280;35061;47.664;9.166;2023-05-02T00:12:17;101764.31;;;9.87;100.00
18755;BME280;35061;47.664;9.166;2023-05-02T00:14:45;101763.16;;;9.84;100.00
18755;BME280;35061;47.664;9.166;2023-05-02T00:17:19;101761.14;;;9.85;100.00
18755;BME280;35061;47.664;9.166;2023-05-02T00:19:47;101756.98;;;9.86;100.00
18755;BME280;35061;47.664;9.166;2023-05-02T00:22:15;101757.77;;;9.86;100.00
18755;BME280;35061;47.664;9.166;2023-05-02T00:24:43;101754.92;;;9.86;100.00
18755;BME280;35061;47.664;9.166;2023-05-02T00:27:11;101754.14;;;9.86;100.00
18755;BME280;35061;47.664;9.166;2023-05-02T00:29:40;101754.92;;;9.86;100.00
18755;BME280;35061;47.664;9.166;2023-05-02T00:32:08;101758.91;;;9.89;100.00
18755;BME280;35061;47.664;9.166;2023-05-02T00:34:36;101749.89;;;9.90;100.00
18755;BME280;35061;47.664;9.166;2023-05-02T00:37:04;101757.97;;;9.92;100.00
18755;BME280;35061;47.664;9.166;2023-05-02T00:39:33;101754.66;;;9.94;100.00
18755;BME280;35061;47.664;9.166;2023-05-02T00:42:02;101748.16;;;9.93;100.00
18755;BME280;35061;47.664;9.166;2023-05-02T00:44:30;101748.61;;;9.91;100.00
18755;BME280;35061;47.664;9.166;2023-05-02T00:47:00;101752.60;;;9.94;100.00
18755;BME280;35061;47.664;9.166;2023-05-02T00:49:28;101739.88;;;9.95;100.00
18755;BME280;35061;47.664;9.166;2023-05-02T00:51:57;101753.71;;;9.97;100.00
18755;BME280;35061;47.664;9.166;2023-05-02T00:54:25;101747.66;;;9.95;100.00
18755;BME280;35061;47.664;9.166;2023-05-02T00:56:53;101747.66;;;9.95;100.00
18755;BME280;35061;47.664;9.166;2023-05-02T00:59:21;101737.16;;;9.91;100.00
18755;BME280;35061;47.664;9.166;2023-05-02T01:04:59;101741.74;;;9.89;100.00
18755;BME280;35061;47.664;9.166;2023-05-02T01:13:18;101748.87;;;9.84;100.00
18755;BME280;35061;47.664;9.166;2023-05-02T01:15:50;101747.27;;;9.83;100.00
18755;BME280;35061;47.664;9.166;2023-05-02T01:18:22;101746.62;;;9.79;100.00
18755;BME280;35061;47.664;9.166;2023-05-02T01:20:57;101751.06;;;9.80;100.00
18755;BME280;35061;47.664;9.166;2023-05-02T01:23:45;101747.89;;;9.78;100.00
18755;BME280;35061;47.664;9.166;2023-05-02T01:29:29;101751.98;;;9.77;100.00
18755;BME280;35061;47.664;9.166;2023-05-02T01:32:00;101756.10;;;9.76;100.00
18755;BME280;35061;47.664;9.166;2023-05-02T01:34:30;101747.53;;;9.76;100.00
18755;BME280;35061;47.664;9.166;2023-05-02T01:37:00;101752.93;;;9.74;100.00
18755;BME280;35061;47.664;9.166;2023-05-02T01:39:29;101747.08;;;9.77;100.00
18755;BME280;35061;47.664;9.166;2023-05-02T01:41:58;101756.46;;;9.78;100.00
18755;BME280;35061;47.664;9.166;2023-05-02T01:44:29;101759.34;;;9.78;100.00
18755;BME280;35061;47.664;9.166;2023-05-02T01:47:00;101759.66;;;9.80;100.00
18755;BME280;35061;47.664;9.166;2023-05-02T01:49:32;101761.70;;;9.80;100.00
18755;BME280;35061;47.664;9.166;2023-05-02T01:52:03;101762.02;;;9.82;100.00
18755;BME280;35061;47.664;9.166;2023-05-02T01:54:32;101753.45;;;9.82;100.00
18755;BME280;35061;47.664;9.166;2023-05-02T01:57:04;101766.63;;;9.79;100.00
18755;BME280;35061;47.664;9.166;2023-05-02T01:59:34;101766.30;;;9.77;100.00
18755;BME280;35061;47.664;9.166;2023-05-02T02:02:04;101775.69;;;9.77;100.00
18755;BME280;35061;47.664;9.166;2023-05-02T02:04:34;101774.55;;;9.75;100.00
18755;BME280;35061;47.664;9.166;2023-05-02T02:07:07;101769.51;;;9.79;100.00
18755;BME280;35061;47.664;9.166;2023-05-02T02:09:35;101769.15;;;9.77;100.00
18755;BME280;35061;47.664;9.166;2023-05-02T02:12:23;101775.23;;;9.79;100.00
18755;BME280;35061;47.664;9.166;2023-05-02T02:14:59;101777.29;;;9.78;100.00
18755;BME280;35061;47.664;9.166;2023-05-02T02:17:36;101778.08;;;9.79;100.00
18755;BME280;35061;47.664;9.166;2023-05-02T02:20:07;101774.22;;;9.73;100.00
18755;BME280;35061;47.664;9.166;2023-05-02T02:22:38;101784.19;;;9.68;100.00
18755;BME280;35061;47.664;9.166;2023-05-02T02:25:10;101780.17;;;9.66;100.00
18755;BME280;35061;47.664;9.166;2023-05-02T02:27:39;101780.17;;;9.66;100.00
18755;BME280;35061;47.664;9.166;2023-05-02T02:30:08;101778.27;;;9.62;100.00
18755;BME280;35061;47.664;9.166;2023-05-02T02:32:36;101784.42;;;9.61;100.00
18755;BME280;35061;47.664;9.166;2023-05-02T02:35:05;101786.97;;;9.59;100.00
18755;BME280;35061;47.664;9.166;2023-05-02T02:37:46;101794.75;;;9.58;100.00
18755;BME280;35061;47.664;9.166;2023-05-02T02:40:27;101787.88;;;9.56;100.00
18755;BME280;35061;47.664;9.166;2023-05-02T02:51:06;101806.10;;;9.49;100.00
18755;BME280;35061;47.664;9.166;2023-05-02T02:56:19;101799.00;;;9.54;100.00
18755;BME280;35061;47.664;9.166;2023-05-02T02:59:22;101807.57;;;9.54;100.00
18755;BME280;35061;47.664;9.166;2023-05-02T03:02:01;101805.87;;;9.56;100.00
18755;BME280;35061;47.664;9.166;2023-05-02T03:04:31;101800.93;;;9.57;100.00
18755;BME280;35061;47.664;9.166;2023-05-02T03:07:00;101811.92;;;9.58;100.00
18755;BME280;35061;47.664;9.166;2023-05-02T03:09:42;101802.54;;;9.58;100.00
18755;BME280;35061;47.664;9.166;2023-05-02T03:12:10;101803.35;;;9.58;100.00
18755;BME280;35061;47.664;9.166;2023-05-02T03:14:39;101809.40;;;9.60;100.00
18755;BME280;35061;47.664;9.166;2023-05-02T03:17:07;101810.65;;;9.59;100.00
18755;BME280;35061;47.664;9.166;2023-05-02T03:19:35;101804.14;;;9.59;100.00
18755;BME280;35061;47.664;9.166;2023-05-02T03:22:04;101813.98;;;9.58;100.00
18755;BME280;35061;47.664;9.166;2023-05-02T03:24:32;101809.04;;;9.58;100.00
18755;BME280;35061;47.664;9.166;2023-05-02T03:27:00;101810.65;;;9.59;100.00
18755;BME280;35061;47.664;9.166;2023-05-02T03:29:28;101811.79;;;9.62;100.00
18755;BME280;35061;47.664;9.166;2023-05-02T03:31:56;101815.45;;;9.62;100.00
18755;BME280;35061;47.664;9.166;2023-05-02T03:34:24;101814.99;;;9.64;100.00
18755;BME280;35061;47.664;9.166;2023-05-02T03:36:52;101817.38;;;9.66;100.00
18755;BME280;35061;47.664;9.166;2023-05-02T03:39:20;101815.32;;;9.66;100.00
18755;BME280;35061;47.664;9.166;2023-05-02T03:41:48;101816.14;;;9.67;100.00
18755;BME280;35061;47.664;9.166;2023-05-02T03:44:16;101810.41;;;9.67;100.00
18755;BME280;35061;47.664;9.166;2023-05-02T03:46:44;101815.65;;;9.68;100.00
18755;BME280;35061;47.664;9.166;2023-05-02T03:49:12;101815.19;;;9.70;100.00
18755;BME280;35061;47.664;9.166;2023-05-02T03:51:40;101827.29;;;9.74;100.00
18755;BME280;35061;47.664;9.166;2023-05-02T03:54:08;101828.11;;;9.74;100.00
18755;BME280;35061;47.664;9.166;2023-05-02T03:56:36;101828.11;;;9.74;100.00
18755;BME280;35061;47.664;9.166;2023-05-02T03:59:08;101828.89;;;9.75;100.00
18755;BME280;35061;47.664;9.166;2023-05-02T04:01:35;101831.31;;;9.76;100.00
18755;BME280;35061;47.664;9.166;2023-05-02T04:04:04;101835.30;;;9.79;100.00
18755;BME280;35061;47.664;9.166;2023-05-02T04:06:32;101829.09;;;9.81;100.00
18755;BME280;35061;47.664;9.166;2023-05-02T04:09:00;101828.20;;;9.84;100.00
18755;BME280;35061;47.664;9.166;2023-05-02T04:11:28;101828.99;;;9.84;100.00
18755;BME280;35061;47.664;9.166;2023-05-02T04:13:56;101835.82;;;9.87;100.00
18755;BME280;35061;47.664;9.166;2023-05-02T04:16:24;101842.33;;;9.87;100.00
18755;BME280;35061;47.664;9.166;2023-05-02T04:18:52;101840.76;;;9.86;100.00
18755;BME280;35061;47.664;9.166;2023-05-02T04:21:20;101845.57;;;9.89;100.00
18755;BME280;35061;47.664;9.166;2023-05-02T04:23:48;101850.48;;;9.89;100.00
18755;BME280;35061;47.664;9.166;2023-05-02T04:26:16;101852.08;;;9.90;100.00
18755;BME280;35061;47.664;9.166;2023-05-02T04:28:44;101859.76;;;9.93;100.00
18755;BME280;35061;47.664;9.166;2023-05-02T04:31:11;101861.69;;;9.96;100.00
18755;BME280;35061;47.664;9.166;2023-05-02T04:33:39;101871.40;;;9.99;100.00
18755;BME280;35061;47.664;9.166;2023-05-02T04:36:08;101866.79;;;10.01;100.00
18755;BME280;35061;47.664;9.166;2023-05-02T04:38:36;101873.01;;;10.00;100.00
18755;BME280;35061;47.664;9.166;2023-05-02T04:41:05;101874.12;;;10.02;100.00
18755;BME280;35061;47.664;9.166;2023-05-02T04:43:35;101875.72;;;10.03;100.00
18755;BME280;35061;47.664;9.166;2023-05-02T04:46:03;101876.50;;;10.04;100.00
18755;BME280;35061;47.664;9.166;2023-05-02T04:48:31;101880.85;;;10.09;100.00
18755;BME280;35061;47.664;9.166;2023-05-02T04:51:00;101879.91;;;10.12;100.00
18755;BME280;35061;47.664;9.166;2023-05-02T04:53:28;101889.65;;;10.14;100.00
18755;BME280;35061;47.664;9.166;2023-05-02T04:55:56;101888.24;;;10.19;100.00
18755;BME280;35061;47.664;9.166;2023-05-02T04:58:24;101893.51;;;10.21;100.00
18755;BME280;35061;47.664;9.166;2023-05-02T05:00:53;101888.57;;;10.21;100.00
18755;BME280;35061;47.664;9.166;2023-05-02T05:03:21;101901.48;;;10.26;100.00
18755;BME280;35061;47.664;9.166;2023-05-02T05:05:49;101899.91;;;10.25;100.00
18755;BME280;35061;47.664;9.166;2023-05-02T05:08:17;101899.91;;;10.25;100.00
18755;BME280;35061;47.664;9.166;2023-05-02T05:10:45;101906.78;;;10.27;100.00
18755;BME280;35061;47.664;9.166;2023-05-02T05:13:13;101915.35;;;10.27;100.00
18755;BME280;35061;47.664;9.166;2023-05-02T05:15:41;101911.69;;;10.27;100.00
18755;BME280;35061;47.664;9.166;2023-05-02T05:18:11;101912.96;;;10.26;100.00
18755;BME280;35061;47.664;9.166;2023-05-02T05:20:39;101922.35;;;10.26;100.00
18755;BME280;35061;47.664;9.166;2023-05-02T05:23:07;101926.93;;;10.24;100.00
18755;BME280;35061;47.664;9.166;2023-05-02T05:25:35;101931.83;;;10.23;100.00
18755;BME280;35061;47.664;9.166;2023-05-02T05:28:02;101929.80;;;10.24;100.00
18755;BME280;35061;47.664;9.166;2023-05-02T05:30:31;101929.48;;;10.22;100.00
18755;BME280;35061;47.664;9.166;2023-05-02T05:32:58;101942.52;;;10.23;100.00
18755;BME280;35061;47.664;9.166;2023-05-02T05:35:27;101947.92;;;10.21;100.00
18755;BME280;35061;47.664;9.166;2023-05-02T05:37:55;101954.20;;;10.15;100.00
18755;BME280;35061;47.664;9.166;2023-05-02T05:40:23;101964.66;;;10.09;100.00
18755;BME280;35061;47.664;9.166;2023-05-02T05:42:50;101962.37;;;10.04;100.00
18755;BME280;35061;47.664;9.166;2023-05-02T05:45:18;101962.37;;;10.04;100.00
18755;BME280;35061;47.664;9.166;2023-05-02T05:47:46;101965.25;;;10.04;100.00
18755;BME280;35061;47.664;9.166;2023-05-02T05:50:14;101967.18;;;10.07;100.00
18755;BME280;35061;47.664;9.166;2023-05-02T05:52:42;101970.84;;;10.08;100.00
18755;BME280;35061;47.664;9.166;2023-05-02T05:55:11;101973.59;;;10.11;100.00
18755;BME280;35061;47.664;9.166;2023-05-02T05:57:38;101970.71;;;10.11;100.00
18755;BME280;35061;47.664;9.166;2023-05-02T06:00:07;101977.22;;;10.12;100.00
18755;BME280;35061;47.664;9.166;2023-05-02T06:02:35;101967.24;;;10.16;100.00
18755;BME280;35061;47.664;9.166;2023-05-02T06:05:04;101965.87;;;10.21;100.00
18755;BME280;35061;47.664;9.166;2023-05-02T06:07:32;101969.77;;;10.27;100.00
18755;BME280;35061;47.664;9.166;2023-05-02T06:10:00;101964.37;;;10.29;100.00
18755;BME280;35061;47.664;9.166;2023-05-02T06:12:29;101967.77;;;10.37;100.00
18755;BME280;35061;47.664;9.166;2023-05-02T06:14:57;101974.87;;;10.45;100.00
18755;BME280;35061;47.664;9.166;2023-05-02T06:17:25;101970.16;;;10.52;100.00
18755;BME280;35061;47.664;9.166;2023-05-02T06:19:53;101967.73;;;10.50;100.00
18755;BME280;35061;47.664;9.166;2023-05-02T06:22:21;101982.26;;;10.56;100.00
18755;BME280;35061;47.664;9.166;2023-05-02T06:24:49;101982.59;;;10.58;100.00
18755;BME280;35061;47.664;9.166;2023-05-02T06:27:17;101977.05;;;10.64;100.00
18755;BME280;35061;47.664;9.166;2023-05-02T06:29:45;101987.95;;;10.69;100.00
18755;BME280;35061;47.664;9.166;2023-05-02T06:32:13;101988.41;;;10.67;100.00
18755;BME280;35061;47.664;9.166;2023-05-02T06:34:41;101992.52;;;10.66;100.00
18755;BME280;35061;47.664;9.166;2023-05-02T06:37:09;101999.20;;;10.63;100.00
18755;BME280;35061;47.664;9.166;2023-05-02T06:39:37;101994.12;;;10.67;100.00
18755;BME280;35061;47.664;9.166;2023-05-02T06:42:05;102004.00;;;10.66;100.00
18755;BME280;35061;47.664;9.166;2023-05-02T06:44:33;102002.07;;;10.63;100.00
18755;BME280;35061;47.664;9.166;2023-05-02T06:47:03;102010.05;;;10.68;100.00
18755;BME280;35061;47.664;9.166;2023-05-02T06:49:31;102007.83;;;10.72;100.00
18755;BME280;35061;47.664;9.166;2023-05-02T06:51:59;102007.27;;;10.78;100.00
18755;BME280;35061;47.664;9.166;2023-05-02T06:54:27;102015.25;;;10.83;100.00
18755;BME280;35061;47.664;9.166;2023-05-02T06:56:55;102004.13;;;10.85;100.00
18755;BME280;35061;47.664;9.166;2023-05-02T06:59:23;102012.11;;;10.90;100.00
18755;BME280;35061;47.664;9.166;2023-05-02T07:01:51;102010.70;;;10.95;100.00
18755;BME280;35061;47.664;9.166;2023-05-02T07:04:19;102015.05;;;10.99;100.00
18755;BME280;35061;47.664;9.166;2023-05-02T07:06:47;102011.23;;;11.02;100.00
18755;BME280;35061;47.664;9.166;2023-05-02T07:09:15;102020.02;;;11.08;100.00
18755;BME280;35061;47.664;9.166;2023-05-02T07:11:44;102012.90;;;11.13;100.00
18755;BME280;35061;47.664;9.166;2023-05-02T07:14:12;102010.21;;;11.19;100.00
18755;BME280;35061;47.664;9.166;2023-05-02T07:16:40;102017.27;;;11.27;100.00
18755;BME280;35061;47.664;9.166;2023-05-02T07:19:08;102011.75;;;11.33;100.00
18755;BME280;35061;47.664;9.166;2023-05-02T07:21:36;102020.38;;;11.42;100.00
18755;BME280;35061;47.664;9.166;2023-05-02T07:24:04;102019.92;;;11.43;100.00
18755;BME280;35061;47.664;9.166;2023-05-02T07:26:32;102023.75;;;11.50;100.00
18755;BME280;35061;47.664;9.166;2023-05-02T07:29:00;102024.27;;;11.57;100.00
18755;BME280;35061;47.664;9.166;2023-05-02T07:31:28;102030.55;;;11.65;100.00
18755;BME280;35061;47.664;9.166;2023-05-02T07:33:56;102026.56;;;11.72;99.87
18755;BME280;35061;47.664;9.166;2023-05-02T07:36:24;102022.61;;;11.79;99.82
18755;BME280;35061;47.664;9.166;2023-05-02T07:38:52;102026.79;;;11.87;99.80
18755;BME280;35061;47.664;9.166;2023-05-02T07:41:20;102033.50;;;11.93;99.62
18755;BME280;35061;47.664;9.166;2023-05-02T07:43:48;102028.43;;;11.97;98.85
18755;BME280;35061;47.664;9.166;2023-05-02T07:46:16;102032.12;;;12.07;99.05
18755;BME280;35061;47.664;9.166;2023-05-02T07:48:44;102038.53;;;12.11;98.25
18755;BME280;35061;47.664;9.166;2023-05-02T07:51:12;102039.48;;;12.08;96.59
18755;BME280;35061;47.664;9.166;2023-05-02T07:53:40;102028.30;;;12.10;96.91
18755;BME280;35061;47.664;9.166;2023-05-02T07:56:08;102036.30;;;12.16;96.63
18755;BME280;35061;47.664;9.166;2023-05-02T07:58:36;102035.03;;;12.17;96.23
18755;BME280;35061;47.664;9.166;2023-05-02T08:01:04;102036.93;;;12.20;95.90
18755;BME280;35061;47.664;9.166;2023-05-02T08:03:32;102038.08;;;12.22;95.95
18755;BME280;35061;47.664;9.166;2023-05-02T08:06:00;102041.73;;;12.23;95.64
18755;BME280;35061;47.664;9.166;2023-05-02T08:08:29;102045.40;;;12.23;94.70
18755;BME280;35061;47.664;9.166;2023-05-02T08:10:56;102047.49;;;12.23;94.57
18755;BME280;35061;47.664;9.166;2023-05-02T08:13:25;102049.42;;;12.26;94.36
18755;BME280;35061;47.664;9.166;2023-05-02T08:15:53;102050.01;;;12.21;91.34
18755;BME280;35061;47.664;9.166;2023-05-02T08:18:25;102054.82;;;12.14;91.24
18755;BME280;35061;47.664;9.166;2023-05-02T08:20:54;102054.66;;;12.18;92.70
18755;BME280;35061;47.664;9.166;2023-05-02T08:23:25;102053.54;;;12.25;92.85
18755;BME280;35061;47.664;9.166;2023-05-02T08:25:53;102056.59;;;12.31;92.49
18755;BME280;35061;47.664;9.166;2023-05-02T08:28:21;102055.47;;;12.28;88.63
18755;BME280;35061;47.664;9.166;2023-05-02T08:30:49;102057.40;;;12.22;90.07
18755;BME280;35061;47.664;9.166;2023-05-02T08:33:17;102073.65;;;12.25;90.48
18755;BME280;35061;47.664;9.166;2023-05-02T08:35:45;102065.67;;;12.29;90.89
18755;BME280;35061;47.664;9.166;2023-05-02T08:38:13;102068.09;;;12.31;90.81
18755;BME280;35061;47.664;9.166;2023-05-02T08:40:41;102071.92;;;12.27;90.70
18755;BME280;35061;47.664;9.166;2023-05-02T08:43:12;102069.04;;;12.27;90.28
18755;BME280;35061;47.664;9.166;2023-05-02T08:45:43;102069.20;;;12.33;90.28
18755;BME280;35061;47.664;9.166;2023-05-02T08:48:12;102072.09;;;12.33;89.87
18755;BME280;35061;47.664;9.166;2023-05-02T08:50:43;102070.68;;;12.38;90.18
18755;BME280;35061;47.664;9.166;2023-05-02T08:53:13;102070.97;;;12.40;88.39
18755;BME280;35061;47.664;9.166;2023-05-02T08:55:41;102070.48;;;12.41;89.37
18755;BME280;35061;47.664;9.166;2023-05-02T08:58:09;102078.03;;;12.48;89.54
18755;BME280;35061;47.664;9.166;2023-05-02T09:00:41;102081.70;;;12.58;89.61
18755;BME280;35061;47.664;9.166;2023-05-02T09:05:41;102081.04;;;12.73;88.58
18755;BME280;35061;47.664;9.166;2023-05-02T09:08:09;102086.80;;;12.82;89.25
18755;BME280;35061;47.664;9.166;2023-05-02T09:10:38;102081.08;;;12.91;89.25
18755;BME280;35061;47.664;9.166;2023-05-02T09:13:42;102081.53;;;12.99;88.95
18755;BME280;35061;47.664;9.166;2023-05-02T09:16:19;102080.75;;;13.08;87.36
18755;BME280;35061;47.664;9.166;2023-05-02T09:18:57;102084.87;;;13.16;86.95
18755;BME280;35061;47.664;9.166;2023-05-02T09:21:37;102093.50;;;13.25;87.14
18755;BME280;35061;47.664;9.166;2023-05-02T09:24:15;102093.96;;;13.33;86.44
18755;BME280;35061;47.664;9.166;2023-05-02T09:26:59;102095.20;;;13.42;86.59
18755;BME280;35061;47.664;9.166;2023-05-02T09:29:28;102089.48;;;13.51;86.35
18755;BME280;35061;47.664;9.166;2023-05-02T09:32:03;102093.77;;;13.56;86.38
18755;BME280;35061;47.664;9.166;2023-05-02T09:34:33;102093.60;;;13.59;85.89
18755;BME280;35061;47.664;9.166;2023-05-02T09:37:01;102088.79;;;13.65;85.65
18755;BME280;35061;47.664;9.166;2023-05-02T09:39:32;102092.62;;;13.72;84.83
18755;BME280;35061;47.664;9.166;2023-05-02T09:42:00;102086.66;;;13.75;84.76
18755;BME280;35061;47.664;9.166;2023-05-02T09:44:36;102091.28;;;13.82;84.40
18755;BME280;35061;47.664;9.166;2023-05-02T09:47:06;102091.24;;;13.91;84.15
18755;BME280;35061;47.664;9.166;2023-05-02T09:52:14;102092.29;;;14.13;83.86
18755;BME280;35061;47.664;9.166;2023-05-02T09:54:42;102094.61;;;14.23;83.46
18755;BME280;35061;47.664;9.166;2023-05-02T09:57:10;102089.58;;;14.33;83.35
18755;BME280;35061;47.664;9.166;2023-05-02T09:59:38;102096.45;;;14.36;82.49
18755;BME280;35061;47.664;9.166;2023-05-02T10:02:07;102098.87;;;14.37;82.03
18755;BME280;35061;47.664;9.166;2023-05-02T10:04:38;102097.39;;;14.42;81.69
18755;BME280;35061;47.664;9.166;2023-05-02T10:07:06;102103.45;;;14.44;81.22
18755;BME280;35061;47.664;9.166;2023-05-02T10:09:42;102098.30;;;14.48;81.02
18755;BME280;35061;47.664;9.166;2023-05-02T10:12:13;102101.38;;;14.45;80.60
18755;BME280;35061;47.664;9.166;2023-05-02T10:14:47;102097.39;;;14.42;79.82
18755;BME280;35061;47.664;9.166;2023-05-02T10:17:28;102102.33;;;14.42;79.50
18755;BME280;35061;47.664;9.166;2023-05-02T10:20:05;102096.58;;;14.42;79.12
18755;BME280;35061;47.664;9.166;2023-05-02T10:22:34;102103.15;;;14.42;79.25
18755;BME280;35061;47.664;9.166;2023-05-02T10:25:03;102100.76;;;14.41;78.95
18755;BME280;35061;47.664;9.166;2023-05-02T10:27:32;102102.52;;;14.38;79.34
18755;BME280;35061;47.664;9.166;2023-05-02T10:30:00;102100.92;;;14.37;78.94
18755;BME280;35061;47.664;9.166;2023-05-02T10:32:35;102097.88;;;14.41;78.89
18755;BME280;35061;47.664;9.166;2023-05-02T10:35:05;102091.93;;;14.44;77.32
18755;BME280;35061;47.664;9.166;2023-05-02T10:37:35;102089.15;;;14.50;78.54
18755;BME280;35061;47.664;9.166;2023-05-02T10:40:09;102087.52;;;14.58;78.40
18755;BME280;35061;47.664;9.166;2023-05-02T10:42:41;102089.05;;;14.69;77.95
18755;BME280;35061;47.664;9.166;2023-05-02T10:45:36;102077.77;;;14.80;78.11
18755;BME280;35061;47.664;9.166;2023-05-02T10:48:14;102071.63;;;14.87;77.05
18755;BME280;35061;47.664;9.166;2023-05-02T10:50:53;102076.40;;;14.90;76.08
18755;BME280;35061;47.664;9.166;2023-05-02T10:53:35;102079.87;;;14.95;75.83
18755;BME280;35061;47.664;9.166;2023-05-02T10:58:35;102073.03;;;15.07;75.03
18755;BME280;35061;47.664;9.166;2023-05-02T11:04:02;102077.74;;;15.19;73.90
18755;BME280;35061;47.664;9.166;2023-05-02T11:07:18;102070.68;;;15.20;74.26
18755;BME280;35061;47.664;9.166;2023-05-02T11:11:51;102072.97;;;15.31;73.16
18755;BME280;35061;47.664;9.166;2023-05-02T11:19:27;102071.95;;;15.65;71.95
18755;BME280;35061;47.664;9.166;2023-05-02T11:24:51;102058.88;;;15.84;69.13
18755;BME280;35061;47.664;9.166;2023-05-02T11:30:01;102060.44;;;16.00;68.52
18755;BME280;35061;47.664;9.166;2023-05-02T11:35:25;102051.45;;;16.13;67.95
18755;BME280;35061;47.664;9.166;2023-05-02T11:38:01;102053.12;;;16.20;66.84
18755;BME280;35061;47.664;9.166;2023-05-02T11:40:33;102051.68;;;16.30;67.73
18755;BME280;35061;47.664;9.166;2023-05-02T11:43:14;102052.27;;;16.35;68.03
18755;BME280;35061;47.664;9.166;2023-05-02T11:45:42;102042.66;;;16.43;67.54
18755;BME280;35061;47.664;9.166;2023-05-02T11:48:12;102044.32;;;16.50;67.65
18755;BME280;35061;47.664;9.166;2023-05-02T11:50:42;102044.45;;;16.62;67.14
18755;BME280;35061;47.664;9.166;2023-05-02T11:53:20;102051.38;;;16.70;67.05
18755;BME280;35061;47.664;9.166;2023-05-02T11:55:53;102049.88;;;16.74;65.76
18755;BME280;35061;47.664;9.166;2023-05-02T11:58:26;102053.84;;;16.77;66.03
18755;BME280;35061;47.664;9.166;2023-05-02T12:01:13;102050.63;;;16.96;65.87
18755;BME280;35061;47.664;9.166;2023-05-02T12:03:41;102056.26;;;17.05;64.18
18755;BME280;35061;47.664;9.166;2023-05-02T12:06:14;102053.54;;;17.22;65.38
18755;BME280;35061;47.664;9.166;2023-05-02T12:08:43;102058.61;;;17.27;64.48
18755;BME280;35061;47.664;9.166;2023-05-02T12:11:12;102056.09;;;17.14;63.93
18755;BME280;35061;47.664;9.166;2023-05-02T12:13:46;102060.70;;;17.00;63.61
18755;BME280;35061;47.664;9.166;2023-05-02T12:16:16;102060.28;;;16.87;62.82
18755;BME280;35061;47.664;9.166;2023-05-02T12:18:46;102062.77;;;16.73;63.80
18755;BME280;35061;47.664;9.166;2023-05-02T12:21:14;102072.41;;;16.70;63.73
18755;BME280;35061;47.664;9.166;2023-05-02T12:23:43;102067.57;;;16.62;64.08
18755;BME280;35061;47.664;9.166;2023-05-02T12:26:19;102071.43;;;16.53;64.23
18755;BME280;35061;47.664;9.166;2023-05-02T12:28:53;102070.05;;;16.48;64.05
18755;BME280;35061;47.664;9.166;2023-05-02T12:31:25;102070.68;;;16.37;64.37
18755;BME280;35061;47.664;9.166;2023-05-02T12:33:55;102078.27;;;16.35;64.51
18755;BME280;35061;47.664;9.166;2023-05-02T12:36:27;102072.34;;;16.23;64.61
18755;BME280;35061;47.664;9.166;2023-05-02T12:39:00;102078.55;;;16.16;64.58
18755;BME280;35061;47.664;9.166;2023-05-02T12:41:37;102077.09;;;16.06;64.50
18755;BME280;35061;47.664;9.166;2023-05-02T12:44:06;102077.22;;;15.96;64.64
18755;BME280;35061;47.664;9.166;2023-05-02T12:46:34;102085.59;;;15.79;65.92
18755;BME280;35061;47.664;9.166;2023-05-02T12:49:04;102081.11;;;15.63;66.76
18755;BME280;35061;47.664;9.166;2023-05-02T12:51:33;102088.30;;;15.53;67.39
18755;BME280;35061;47.664;9.166;2023-05-02T12:54:01;102080.81;;;15.31;68.08
18755;BME280;35061;47.664;9.166;2023-05-02T12:56:37;102074.34;;;15.21;68.62
18755;BME280;35061;47.664;9.166;2023-05-02T12:59:06;102072.64;;;15.14;69.05
18755;BME280;35061;47.664;9.166;2023-05-02T13:01:34;102059.88;;;15.06;69.41
18755;BME280;35061;47.664;9.166;2023-05-02T13:04:03;102063.48;;;15.01;69.64
18755;BME280;35061;47.664;9.166;2023-05-02T13:06:32;102059.49;;;14.98;69.76
18755;BME280;35061;47.664;9.166;2023-05-02T13:09:00;102060.31;;;14.99;70.04
18755;BME280;35061;47.664;9.166;2023-05-02T13:11:29;102061.72;;;15.03;70.76
18755;BME280;35061;47.664;9.166;2023-05-02T13:13:57;102059.43;;;15.07;71.63
18755;BME280;35061;47.664;9.166;2023-05-02T13:16:26;102047.49;;;15.15;71.62
18755;BME280;35061;47.664;9.166;2023-05-02T13:18:56;102046.77;;;15.20;71.39
18755;BME280;35061;47.664;9.166;2023-05-02T13:21:24;102034.25;;;15.23;71.41
18755;BME280;35061;47.664;9.166;2023-05-02T13:23:52;102045.59;;;15.27;71.15
18755;BME280;35061;47.664;9.166;2023-05-02T13:26:22;102042.69;;;15.27;71.54
18755;BME280;35061;47.664;9.166;2023-05-02T13:28:50;102048.08;;;15.34;71.63
18755;BME280;35061;47.664;9.166;2023-05-02T13:31:17;102042.13;;;15.38;71.53
18755;BME280;35061;47.664;9.166;2023-05-02T13:33:46;102046.38;;;15.42;71.96
18755;BME280;35061;47.664;9.166;2023-05-02T13:36:14;102038.11;;;15.50;71.75
18755;BME280;35061;47.664;9.166;2023-05-02T13:38:41;102035.62;;;15.58;71.41
18755;BME280;35061;47.664;9.166;2023-05-02T13:41:10;102036.30;;;15.68;71.23
18755;BME280;35061;47.664;9.166;2023-05-02T13:43:38;102034.09;;;15.77;70.68
18755;BME280;35061;47.664;9.166;2023-05-02T13:46:07;102033.70;;;15.85;70.09
18755;BME280;35061;47.664;9.166;2023-05-02T13:48:35;102028.30;;;15.93;69.49
18755;BME280;35061;47.664;9.166;2023-05-02T13:51:04;102025.78;;;16.00;69.30
18755;BME280;35061;47.664;9.166;2023-05-02T13:53:32;102025.59;;;16.04;68.92